Terminal Aerodrome Forecast
Issued by NWS

Home | Current Version | Previous Version | Text Only | Print | Product List | Glossary On
Versions: 1 2 3 4 5 6 7 8 9 10 11 12 13 14 15 16 17
712
FTUS44 KLZK 230548
TAFBPK
TAF
KBPK 230548Z 2306/2406 VRB04KT P6SM VCSH OVC007
      TEMPO 2306/2310 SCT007 OVC015
     FM231500 31004KT P6SM VCSH SCT007 OVC020
     FM231900 32006KT P6SM -SHRA VCTS SCT025CB BKN060
     FM240200 VRB03KT P6SM SCT060 BKN250=

USA.gov is the U.S. government's official web portal to all federal, state and local government web resources and services.